sensor_id;sensor_type;location;lat;lon;timestamp;temperature;humidity
15413;DHT22;7805;49.554;7.632;2023-12-20T00:02:16;6.10;99.90
15413;DHT22;7805;49.554;7.632;2023-12-20T00:04:42;6.10;99.90
15413;DHT22;7805;49.554;7.632;2023-12-20T00:07:07;6.10;99.90
15413;DHT22;7805;49.554;7.632;2023-12-20T00:09:33;6.10;99.90
15413;DHT22;7805;49.554;7.632;2023-12-20T00:11:58;6.10;99.90
15413;DHT22;7805;49.554;7.632;2023-12-20T00:14:24;6.20;99.90
15413;DHT22;7805;49.554;7.632;2023-12-20T00:16:49;6.20;99.90
15413;DHT22;7805;49.554;7.632;2023-12-20T00:19:15;6.20;99.90
15413;DHT22;7805;49.554;7.632;2023-12-20T00:21:40;6.10;99.90
15413;DHT22;7805;49.554;7.632;2023-12-20T00:24:06;6.20;99.90
15413;DHT22;7805;49.554;7.632;2023-12-20T00:26:32;6.20;99.90
15413;DHT22;7805;49.554;7.632;2023-12-20T00:28:57;6.20;99.90
15413;DHT22;7805;49.554;7.632;2023-12-20T00:31:23;6.10;99.90
15413;DHT22;7805;49.554;7.632;2023-12-20T00:33:48;6.10;99.90
15413;DHT22;7805;49.554;7.632;2023-12-20T00:36:14;6.10;99.90
15413;DHT22;7805;49.554;7.632;2023-12-20T00:38:39;6.10;99.90
15413;DHT22;7805;49.554;7.632;2023-12-20T00:41:05;6.10;99.90
15413;DHT22;7805;49.554;7.632;2023-12-20T00:43:30;6.20;99.90
15413;DHT22;7805;49.554;7.632;2023-12-20T00:45:57;6.20;99.90
15413;DHT22;7805;49.554;7.632;2023-12-20T00:48:22;6.10;99.90
15413;DHT22;7805;49.554;7.632;2023-12-20T00:50:48;6.10;99.90
15413;DHT22;7805;49.554;7.632;2023-12-20T00:53:13;6.20;99.90
15413;DHT22;7805;49.554;7.632;2023-12-20T00:55:39;6.10;99.90
15413;DHT22;7805;49.554;7.632;2023-12-20T00:58:05;6.10;99.90
15413;DHT22;7805;49.554;7.632;2023-12-20T01:00:31;6.10;99.90
15413;DHT22;7805;49.554;7.632;2023-12-20T01:02:56;6.10;99.90
15413;DHT22;7805;49.554;7.632;2023-12-20T01:05:22;6.10;99.90
15413;DHT22;7805;49.554;7.632;2023-12-20T01:07:48;6.10;99.90
15413;DHT22;7805;49.554;7.632;2023-12-20T01:10:14;6.10;99.90
15413;DHT22;7805;49.554;7.632;2023-12-20T01:12:40;6.10;99.90
15413;DHT22;7805;49.554;7.632;2023-12-20T01:15:06;6.10;99.90
15413;DHT22;7805;49.554;7.632;2023-12-20T01:17:31;6.20;99.90
15413;DHT22;7805;49.554;7.632;2023-12-20T01:19:57;6.10;99.90
15413;DHT22;7805;49.554;7.632;2023-12-20T01:22:23;6.20;99.90
15413;DHT22;7805;49.554;7.632;2023-12-20T01:24:49;6.10;99.90
15413;DHT22;7805;49.554;7.632;2023-12-20T01:27:14;6.10;99.90
15413;DHT22;7805;49.554;7.632;2023-12-20T01:29:40;6.10;99.90
15413;DHT22;7805;49.554;7.632;2023-12-20T01:32:06;6.20;99.90
15413;DHT22;7805;49.554;7.632;2023-12-20T01:34:31;6.20;99.90
15413;DHT22;7805;49.554;7.632;2023-12-20T01:36:57;6.20;99.90
15413;DHT22;7805;49.554;7.632;2023-12-20T01:39:23;6.20;99.90
15413;DHT22;7805;49.554;7.632;2023-12-20T01:41:48;6.20;99.90
15413;DHT22;7805;49.554;7.632;2023-12-20T01:44:14;6.20;99.90
15413;DHT22;7805;49.554;7.632;2023-12-20T01:46:39;6.30;99.90
15413;DHT22;7805;49.554;7.632;2023-12-20T01:49:06;6.30;99.90
15413;DHT22;7805;49.554;7.632;2023-12-20T01:51:32;6.40;99.90
15413;DHT22;7805;49.554;7.632;2023-12-20T01:53:59;6.40;99.90
15413;DHT22;7805;49.554;7.632;2023-12-20T01:56:26;6.30;99.90
15413;DHT22;7805;49.554;7.632;2023-12-20T01:58:53;6.40;99.90
15413;DHT22;7805;49.554;7.632;2023-12-20T02:01:20;6.30;99.90
15413;DHT22;7805;49.554;7.632;2023-12-20T02:03:45;6.30;99.90
15413;DHT22;7805;49.554;7.632;2023-12-20T02:06:11;6.30;99.90
15413;DHT22;7805;49.554;7.632;2023-12-20T02:08:37;6.30;99.90
15413;DHT22;7805;49.554;7.632;2023-12-20T02:11:03;6.30;99.90
15413;DHT22;7805;49.554;7.632;2023-12-20T02:13:29;6.30;99.90
15413;DHT22;7805;49.554;7.632;2023-12-20T02:15:55;6.40;99.90
15413;DHT22;7805;49.554;7.632;2023-12-20T02:18:21;6.40;99.90
15413;DHT22;7805;49.554;7.632;2023-12-20T02:20:47;6.50;99.90
15413;DHT22;7805;49.554;7.632;2023-12-20T02:23:13;6.50;99.90
15413;DHT22;7805;49.554;7.632;2023-12-20T02:25:38;6.60;99.90
15413;DHT22;7805;49.554;7.632;2023-12-20T02:28:05;6.50;99.90
15413;DHT22;7805;49.554;7.632;2023-12-20T02:30:30;6.50;99.90
15413;DHT22;7805;49.554;7.632;2023-12-20T02:32:56;6.60;99.90
15413;DHT22;7805;49.554;7.632;2023-12-20T02:35:22;6.60;99.90
15413;DHT22;7805;49.554;7.632;2023-12-20T02:37:48;6.70;99.90
15413;DHT22;7805;49.554;7.632;2023-12-20T02:40:13;6.70;99.90
15413;DHT22;7805;49.554;7.632;2023-12-20T02:42:39;6.70;99.90
15413;DHT22;7805;49.554;7.632;2023-12-20T02:45:05;6.70;99.90
15413;DHT22;7805;49.554;7.632;2023-12-20T02:47:31;6.70;99.90
15413;DHT22;7805;49.554;7.632;2023-12-20T02:49:56;6.70;99.90
15413;DHT22;7805;49.554;7.632;2023-12-20T02:52:23;6.70;99.90
15413;DHT22;7805;49.554;7.632;2023-12-20T02:54:49;6.70;99.90
15413;DHT22;7805;49.554;7.632;2023-12-20T02:57:15;6.70;99.90
15413;DHT22;7805;49.554;7.632;2023-12-20T02:59:40;6.70;99.90
15413;DHT22;7805;49.554;7.632;2023-12-20T03:02:06;6.80;99.90
15413;DHT22;7805;49.554;7.632;2023-12-20T03:04:31;6.80;99.90
15413;DHT22;7805;49.554;7.632;2023-12-20T03:06:57;6.70;99.90
15413;DHT22;7805;49.554;7.632;2023-12-20T03:09:22;6.70;99.90
15413;DHT22;7805;49.554;7.632;2023-12-20T03:11:48;6.60;99.90
15413;DHT22;7805;49.554;7.632;2023-12-20T03:14:13;6.50;99.90
15413;DHT22;7805;49.554;7.632;2023-12-20T03:16:39;6.50;99.90
15413;DHT22;7805;49.554;7.632;2023-12-20T03:19:04;6.50;99.90
15413;DHT22;7805;49.554;7.632;2023-12-20T03:21:30;6.50;99.90
15413;DHT22;7805;49.554;7.632;2023-12-20T03:23:55;6.60;99.90
15413;DHT22;7805;49.554;7.632;2023-12-20T03:26:21;6.50;99.90
15413;DHT22;7805;49.554;7.632;2023-12-20T03:28:47;6.50;99.90
15413;DHT22;7805;49.554;7.632;2023-12-20T03:31:13;6.50;99.90
15413;DHT22;7805;49.554;7.632;2023-12-20T03:33:39;6.50;99.90
15413;DHT22;7805;49.554;7.632;2023-12-20T03:36:05;6.50;99.90
15413;DHT22;7805;49.554;7.632;2023-12-20T03:38:30;6.50;99.90
15413;DHT22;7805;49.554;7.632;2023-12-20T03:40:56;6.60;99.90
15413;DHT22;7805;49.554;7.632;2023-12-20T03:43:21;6.60;99.90
15413;DHT22;7805;49.554;7.632;2023-12-20T03:45:47;6.60;99.90
15413;DHT22;7805;49.554;7.632;2023-12-20T03:48:13;6.70;99.90
15413;DHT22;7805;49.554;7.632;2023-12-20T03:50:38;6.70;99.90
15413;DHT22;7805;49.554;7.632;2023-12-20T03:53:04;6.80;99.90
15413;DHT22;7805;49.554;7.632;2023-12-20T03:55:29;6.80;99.90
15413;DHT22;7805;49.554;7.632;2023-12-20T03:57:55;6.80;99.90
15413;DHT22;7805;49.554;7.632;2023-12-20T04:00:20;6.80;99.90
15413;DHT22;7805;49.554;7.632;2023-12-20T04:02:46;6.90;99.90
15413;DHT22;7805;49.554;7.632;2023-12-20T04:05:12;6.90;99.90
15413;DHT22;7805;49.554;7.632;2023-12-20T04:07:38;6.90;99.90
15413;DHT22;7805;49.554;7.632;2023-12-20T04:10:04;6.90;99.90
15413;DHT22;7805;49.554;7.632;2023-12-20T04:12:32;6.90;99.90
15413;DHT22;7805;49.554;7.632;2023-12-20T04:14:57;6.90;99.90
15413;DHT22;7805;49.554;7.632;2023-12-20T04:17:23;7.00;99.90
15413;DHT22;7805;49.554;7.632;2023-12-20T04:19:49;7.00;99.90
15413;DHT22;7805;49.554;7.632;2023-12-20T04:22:15;7.00;99.90
15413;DHT22;7805;49.554;7.632;2023-12-20T04:24:41;6.90;99.90
15413;DHT22;7805;49.554;7.632;2023-12-20T04:27:07;7.00;99.90
15413;DHT22;7805;49.554;7.632;2023-12-20T04:29:33;6.90;99.90
15413;DHT22;7805;49.554;7.632;2023-12-20T04:31:59;7.00;99.90
15413;DHT22;7805;49.554;7.632;2023-12-20T04:34:24;7.00;99.90
15413;DHT22;7805;49.554;7.632;2023-12-20T04:36:50;7.10;99.90
15413;DHT22;7805;49.554;7.632;2023-12-20T04:39:15;7.10;99.90
15413;DHT22;7805;49.554;7.632;2023-12-20T04:41:41;7.10;99.90
15413;DHT22;7805;49.554;7.632;2023-12-20T04:44:07;7.10;99.90
15413;DHT22;7805;49.554;7.632;2023-12-20T04:46:32;7.10;99.90
15413;DHT22;7805;49.554;7.632;2023-12-20T04:48:58;7.10;99.90
15413;DHT22;7805;49.554;7.632;2023-12-20T04:51:24;7.00;99.90
15413;DHT22;7805;49.554;7.632;2023-12-20T04:53:49;7.00;99.90
15413;DHT22;7805;49.554;7.632;2023-12-20T04:56:15;5.70;99.90
15413;DHT22;7805;49.554;7.632;2023-12-20T04:58:41;7.00;99.90
15413;DHT22;7805;49.554;7.632;2023-12-20T05:01:08;7.10;99.90
15413;DHT22;7805;49.554;7.632;2023-12-20T05:03:34;7.10;99.90
15413;DHT22;7805;49.554;7.632;2023-12-20T05:06:00;7.00;99.90
15413;DHT22;7805;49.554;7.632;2023-12-20T05:08:25;7.00;99.90
15413;DHT22;7805;49.554;7.632;2023-12-20T05:10:54;7.00;99.90
15413;DHT22;7805;49.554;7.632;2023-12-20T05:13:20;7.00;99.90
15413;DHT22;7805;49.554;7.632;2023-12-20T05:15:45;7.00;99.90
15413;DHT22;7805;49.554;7.632;2023-12-20T05:18:11;6.90;99.90
15413;DHT22;7805;49.554;7.632;2023-12-20T05:20:36;6.80;99.90
15413;DHT22;7805;49.554;7.632;2023-12-20T05:23:02;6.90;99.90
15413;DHT22;7805;49.554;7.632;2023-12-20T05:25:28;6.90;99.90
15413;DHT22;7805;49.554;7.632;2023-12-20T05:27:53;6.80;99.90
15413;DHT22;7805;49.554;7.632;2023-12-20T05:30:19;6.90;99.90
15413;DHT22;7805;49.554;7.632;2023-12-20T05:32:44;6.90;99.90
15413;DHT22;7805;49.554;7.632;2023-12-20T05:35:10;6.90;99.90
15413;DHT22;7805;49.554;7.632;2023-12-20T05:37:35;6.90;99.90
15413;DHT22;7805;49.554;7.632;2023-12-20T05:40:01;6.90;99.90
15413;DHT22;7805;49.554;7.632;2023-12-20T05:42:27;7.00;99.90
15413;DHT22;7805;49.554;7.632;2023-12-20T05:44:52;7.00;99.90
15413;DHT22;7805;49.554;7.632;2023-12-20T05:47:18;7.00;99.90
15413;DHT22;7805;49.554;7.632;2023-12-20T05:49:44;7.00;99.90
15413;DHT22;7805;49.554;7.632;2023-12-20T05:52:10;7.00;99.90
15413;DHT22;7805;49.554;7.632;2023-12-20T05:54:35;7.00;99.90
15413;DHT22;7805;49.554;7.632;2023-12-20T05:57:01;7.00;99.90
15413;DHT22;7805;49.554;7.632;2023-12-20T05:59:26;7.00;99.90
15413;DHT22;7805;49.554;7.632;2023-12-20T06:01:52;7.00;99.90
15413;DHT22;7805;49.554;7.632;2023-12-20T06:04:18;6.90;99.90
15413;DHT22;7805;49.554;7.632;2023-12-20T06:06:44;6.90;99.90
15413;DHT22;7805;49.554;7.632;2023-12-20T06:09:10;6.90;99.90
15413;DHT22;7805;49.554;7.632;2023-12-20T06:11:35;6.90;99.90
15413;DHT22;7805;49.554;7.632;2023-12-20T06:14:01;6.80;99.90
15413;DHT22;7805;49.554;7.632;2023-12-20T06:16:30;6.80;99.90
15413;DHT22;7805;49.554;7.632;2023-12-20T06:18:55;6.70;99.90
15413;DHT22;7805;49.554;7.632;2023-12-20T06:21:21;6.70;99.90
15413;DHT22;7805;49.554;7.632;2023-12-20T06:23:46;6.60;99.90
15413;DHT22;7805;49.554;7.632;2023-12-20T06:26:12;6.60;99.90
15413;DHT22;7805;49.554;7.632;2023-12-20T06:28:37;6.60;99.90
15413;DHT22;7805;49.554;7.632;2023-12-20T06:31:03;6.50;99.90
15413;DHT22;7805;49.554;7.632;2023-12-20T06:33:29;6.40;99.90
15413;DHT22;7805;49.554;7.632;2023-12-20T06:35:56;6.30;99.90
15413;DHT22;7805;49.554;7.632;2023-12-20T06:38:22;6.20;99.90
15413;DHT22;7805;49.554;7.632;2023-12-20T06:40:48;6.20;99.90
15413;DHT22;7805;49.554;7.632;2023-12-20T06:43:14;6.10;99.90
15413;DHT22;7805;49.554;7.632;2023-12-20T06:45:39;6.00;99.90
15413;DHT22;7805;49.554;7.632;2023-12-20T06:48:05;5.90;99.90
15413;DHT22;7805;49.554;7.632;2023-12-20T06:50:31;5.80;99.90
15413;DHT22;7805;49.554;7.632;2023-12-20T06:52:56;5.80;99.90
15413;DHT22;7805;49.554;7.632;2023-12-20T06:55:22;5.90;99.90
15413;DHT22;7805;49.554;7.632;2023-12-20T06:57:48;5.90;99.90
15413;DHT22;7805;49.554;7.632;2023-12-20T07:00:14;5.90;99.90
15413;DHT22;7805;49.554;7.632;2023-12-20T07:02:40;5.70;99.90
15413;DHT22;7805;49.554;7.632;2023-12-20T07:05:06;5.80;99.90
15413;DHT22;7805;49.554;7.632;2023-12-20T07:07:31;5.60;99.90
15413;DHT22;7805;49.554;7.632;2023-12-20T07:09:57;5.60;99.90
15413;DHT22;7805;49.554;7.632;2023-12-20T07:12:22;5.60;99.90
15413;DHT22;7805;49.554;7.632;2023-12-20T07:14:48;5.70;99.90
15413;DHT22;7805;49.554;7.632;2023-12-20T07:17:14;5.60;99.90
15413;DHT22;7805;49.554;7.632;2023-12-20T07:19:41;5.60;99.90
15413;DHT22;7805;49.554;7.632;2023-12-20T07:22:07;5.70;99.90
15413;DHT22;7805;49.554;7.632;2023-12-20T07:24:33;5.70;99.90
15413;DHT22;7805;49.554;7.632;2023-12-20T07:27:02;5.60;99.90
15413;DHT22;7805;49.554;7.632;2023-12-20T07:29:27;5.60;99.90
15413;DHT22;7805;49.554;7.632;2023-12-20T07:31:53;5.60;99.90
15413;DHT22;7805;49.554;7.632;2023-12-20T07:34:22;5.60;99.90
15413;DHT22;7805;49.554;7.632;2023-12-20T07:36:47;5.60;99.90
15413;DHT22;7805;49.554;7.632;2023-12-20T07:39:14;5.60;99.90
15413;DHT22;7805;49.554;7.632;2023-12-20T07:41:39;5.50;99.90
15413;DHT22;7805;49.554;7.632;2023-12-20T07:44:05;5.50;99.90
15413;DHT22;7805;49.554;7.632;2023-12-20T07:46:31;5.40;99.90
15413;DHT22;7805;49.554;7.632;2023-12-20T07:48:57;5.40;99.90
15413;DHT22;7805;49.554;7.632;2023-12-20T07:51:22;5.40;99.90
15413;DHT22;7805;49.554;7.632;2023-12-20T07:53:48;5.40;99.90
15413;DHT22;7805;49.554;7.632;2023-12-20T07:56:18;5.40;99.90
15413;DHT22;7805;49.554;7.632;2023-12-20T07:58:44;5.40;99.90
15413;DHT22;7805;49.554;7.632;2023-12-20T08:01:11;5.40;99.90
15413;DHT22;7805;49.554;7.632;2023-12-20T08:03:37;5.50;99.90
15413;DHT22;7805;49.554;7.632;2023-12-20T08:06:03;5.50;99.90
15413;DHT22;7805;49.554;7.632;2023-12-20T08:08:28;5.60;99.90
15413;DHT22;7805;49.554;7.632;2023-12-20T08:10:54;5.50;99.90
15413;DHT22;7805;49.554;7.632;2023-12-20T08:13:20;5.50;99.90
15413;DHT22;7805;49.554;7.632;2023-12-20T08:15:50;5.60;99.90
15413;DHT22;7805;49.554;7.632;2023-12-20T08:18:15;5.60;99.90
15413;DHT22;7805;49.554;7.632;2023-12-20T08:20:41;5.70;99.90
15413;DHT22;7805;49.554;7.632;2023-12-20T08:23:06;5.70;99.90
15413;DHT22;7805;49.554;7.632;2023-12-20T08:25:32;5.80;99.90
15413;DHT22;7805;49.554;7.632;2023-12-20T08:27:57;5.90;99.90
15413;DHT22;7805;49.554;7.632;2023-12-20T08:30:23;6.10;99.90
15413;DHT22;7805;49.554;7.632;2023-12-20T08:32:49;6.20;99.90
15413;DHT22;7805;49.554;7.632;2023-12-20T08:35:14;6.30;99.90
15413;DHT22;7805;49.554;7.632;2023-12-20T08:37:40;6.50;99.90
15413;DHT22;7805;49.554;7.632;2023-12-20T08:40:06;6.70;99.90
15413;DHT22;7805;49.554;7.632;2023-12-20T08:42:31;6.60;99.90
15413;DHT22;7805;49.554;7.632;2023-12-20T08:44:57;6.60;99.90
15413;DHT22;7805;49.554;7.632;2023-12-20T08:47:26;6.70;99.90
15413;DHT22;7805;49.554;7.632;2023-12-20T08:49:52;6.70;99.90
15413;DHT22;7805;49.554;7.632;2023-12-20T08:52:22;6.80;99.90
15413;DHT22;7805;49.554;7.632;2023-12-20T08:54:49;6.80;99.90
15413;DHT22;7805;49.554;7.632;2023-12-20T08:57:18;6.80;99.90
15413;DHT22;7805;49.554;7.632;2023-12-20T08:59:43;6.90;99.90
15413;DHT22;7805;49.554;7.632;2023-12-20T09:02:09;7.60;99.90
15413;DHT22;7805;49.554;7.632;2023-12-20T09:04:35;8.80;99.90
15413;DHT22;7805;49.554;7.632;2023-12-20T09:07:00;9.70;99.90
15413;DHT22;7805;49.554;7.632;2023-12-20T09:09:26;9.80;99.90
15413;DHT22;7805;49.554;7.632;2023-12-20T09:11:52;9.60;99.90
15413;DHT22;7805;49.554;7.632;2023-12-20T09:14:17;9.60;99.90
15413;DHT22;7805;49.554;7.632;2023-12-20T09:16:43;9.70;99.90
15413;DHT22;7805;49.554;7.632;2023-12-20T09:19:08;9.90;99.90
15413;DHT22;7805;49.554;7.632;2023-12-20T09:21:34;9.60;99.90
15413;DHT22;7805;49.554;7.632;2023-12-20T09:24:00;9.50;99.90
15413;DHT22;7805;49.554;7.632;2023-12-20T09:26:25;9.40;99.90
15413;DHT22;7805;49.554;7.632;2023-12-20T09:28:51;9.50;99.90
15413;DHT22;7805;49.554;7.632;2023-12-20T09:31:16;9.30;99.90
15413;DHT22;7805;49.554;7.632;2023-12-20T09:33:42;8.90;99.90
15413;DHT22;7805;49.554;7.632;2023-12-20T09:36:07;8.60;99.90
15413;DHT22;7805;49.554;7.632;2023-12-20T09:38:33;8.40;99.90
15413;DHT22;7805;49.554;7.632;2023-12-20T09:41:00;8.20;99.90
15413;DHT22;7805;49.554;7.632;2023-12-20T09:43:27;8.00;99.90
15413;DHT22;7805;49.554;7.632;2023-12-20T09:46:00;7.80;99.90
15413;DHT22;7805;49.554;7.632;2023-12-20T09:48:27;7.70;99.90
15413;DHT22;7805;49.554;7.632;2023-12-20T09:50:54;7.60;99.90
15413;DHT22;7805;49.554;7.632;2023-12-20T09:53:21;7.50;99.90
15413;DHT22;7805;49.554;7.632;2023-12-20T09:55:48;7.50;99.90
15413;DHT22;7805;49.554;7.632;2023-12-20T09:58:14;7.30;99.90
15413;DHT22;7805;49.554;7.632;2023-12-20T10:00:40;7.40;99.90
15413;DHT22;7805;49.554;7.632;2023-12-20T10:03:06;7.50;99.90
15413;DHT22;7805;49.554;7.632;2023-12-20T10:05:33;7.40;99.90
15413;DHT22;7805;49.554;7.632;2023-12-20T10:08:00;7.30;99.90
15413;DHT22;7805;49.554;7.632;2023-12-20T10:10:26;7.30;99.90
15413;DHT22;7805;49.554;7.632;2023-12-20T10:13:06;7.40;99.90
15413;DHT22;7805;49.554;7.632;2023-12-20T10:15:36;7.50;99.90
15413;DHT22;7805;49.554;7.632;2023-12-20T10:18:02;7.60;99.90
15413;DHT22;7805;49.554;7.632;2023-12-20T10:20:28;8.00;99.90
15413;DHT22;7805;49.554;7.632;2023-12-20T10:22:58;8.20;99.90
15413;DHT22;7805;49.554;7.632;2023-12-20T10:25:24;8.40;99.90
15413;DHT22;7805;49.554;7.632;2023-12-20T10:28:08;8.50;99.90
15413;DHT22;7805;49.554;7.632;2023-12-20T10:30:33;8.40;99.90
15413;DHT22;7805;49.554;7.632;2023-12-20T10:32:59;8.30;99.90
15413;DHT22;7805;49.554;7.632;2023-12-20T10:35:25;8.20;99.90
15413;DHT22;7805;49.554;7.632;2023-12-20T10:37:55;8.00;99.90
15413;DHT22;7805;49.554;7.632;2023-12-20T10:40:22;7.80;99.90
15413;DHT22;7805;49.554;7.632;2023-12-20T10:42:48;7.60;99.90
15413;DHT22;7805;49.554;7.632;2023-12-20T10:45:15;7.70;99.90
15413;DHT22;7805;49.554;7.632;2023-12-20T10:47:44;7.70;99.90
15413;DHT22;7805;49.554;7.632;2023-12-20T10:50:11;7.80;99.90
15413;DHT22;7805;49.554;7.632;2023-12-20T10:52:37;8.10;99.90
15413;DHT22;7805;49.554;7.632;2023-12-20T10:55:04;7.80;99.90
15413;DHT22;7805;49.554;7.632;2023-12-20T10:57:30;7.70;99.90
15413;DHT22;7805;49.554;7.632;2023-12-20T11:00:00;7.70;99.90
15413;DHT22;7805;49.554;7.632;2023-12-20T11:02:31;7.60;99.90
15413;DHT22;7805;49.554;7.632;2023-12-20T11:05:10;7.50;99.90
15413;DHT22;7805;49.554;7.632;2023-12-20T11:07:43;7.50;99.90
15413;DHT22;7805;49.554;7.632;2023-12-20T11:10:20;7.50;99.90
15413;DHT22;7805;49.554;7.632;2023-12-20T11:15:21;7.70;99.90
15413;DHT22;7805;49.554;7.632;2023-12-20T11:17:55;7.60;99.90
15413;DHT22;7805;49.554;7.632;2023-12-20T11:20:23;7.50;99.90
15413;DHT22;7805;49.554;7.632;2023-12-20T11:22:55;7.60;99.90
15413;DHT22;7805;49.554;7.632;2023-12-20T11:25:21;7.60;99.90
15413;DHT22;7805;49.554;7.632;2023-12-20T11:28:07;7.70;99.90
15413;DHT22;7805;49.554;7.632;2023-12-20T11:33:13;7.90;99.90
15413;DHT22;7805;49.554;7.632;2023-12-20T11:35:39;8.00;99.90
15413;DHT22;7805;49.554;7.632;2023-12-20T11:38:08;8.00;99.90
15413;DHT22;7805;49.554;7.632;2023-12-20T11:40:35;8.20;99.90
15413;DHT22;7805;49.554;7.632;2023-12-20T11:43:01;8.20;99.90
15413;DHT22;7805;49.554;7.632;2023-12-20T11:45:26;8.20;99.90
15413;DHT22;7805;49.554;7.632;2023-12-20T11:47:52;8.10;99.90
15413;DHT22;7805;49.554;7.632;2023-12-20T11:50:22;8.10;99.90
15413;DHT22;7805;49.554;7.632;2023-12-20T11:52:48;8.00;99.90
15413;DHT22;7805;49.554;7.632;2023-12-20T11:55:14;7.90;99.90
15413;DHT22;7805;49.554;7.632;2023-12-20T11:57:40;7.90;99.90
15413;DHT22;7805;49.554;7.632;2023-12-20T12:00:06;7.90;99.90
15413;DHT22;7805;49.554;7.632;2023-12-20T12:02:32;7.80;99.90
15413;DHT22;7805;49.554;7.632;2023-12-20T12:04:59;7.80;99.90
15413;DHT22;7805;49.554;7.632;2023-12-20T12:07:24;7.70;99.90
15413;DHT22;7805;49.554;7.632;2023-12-20T12:09:50;7.60;99.90
15413;DHT22;7805;49.554;7.632;2023-12-20T12:12:16;7.70;99.90
15413;DHT22;7805;49.554;7.632;2023-12-20T12:14:42;7.70;99.90
15413;DHT22;7805;49.554;7.632;2023-12-20T12:17:11;7.60;99.90
15413;DHT22;7805;49.554;7.632;2023-12-20T12:19:37;7.60;99.90
15413;DHT22;7805;49.554;7.632;2023-12-20T12:22:07;7.60;99.90
15413;DHT22;7805;49.554;7.632;2023-12-20T12:24:34;7.50;99.90
15413;DHT22;7805;49.554;7.632;2023-12-20T12:27:00;7.50;99.90
15413;DHT22;7805;49.554;7.632;2023-12-20T12:29:25;7.60;99.90
15413;DHT22;7805;49.554;7.632;2023-12-20T12:31:51;7.60;99.90
15413;DHT22;7805;49.554;7.632;2023-12-20T12:34:20;7.60;99.90
15413;DHT22;7805;49.554;7.632;2023-12-20T12:36:45;7.60;99.90
15413;DHT22;7805;49.554;7.632;2023-12-20T12:39:17;7.70;99.90
15413;DHT22;7805;49.554;7.632;2023-12-20T12:41:43;7.80;99.90
15413;DHT22;7805;49.554;7.632;2023-12-20T12:44:08;7.80;99.90
15413;DHT22;7805;49.554;7.632;2023-12-20T12:46:34;8.00;99.90
15413;DHT22;7805;49.554;7.632;2023-12-20T12:49:00;8.20;99.90
15413;DHT22;7805;49.554;7.632;2023-12-20T12:51:25;8.40;99.90
15413;DHT22;7805;49.554;7.632;2023-12-20T12:53:51;8.40;99.90
15413;DHT22;7805;49.554;7.632;2023-12-20T12:56:16;8.40;99.90
15413;DHT22;7805;49.554;7.632;2023-12-20T12:58:42;8.30;99.90
15413;DHT22;7805;49.554;7.632;2023-12-20T13:01:08;8.30;99.90
15413;DHT22;7805;49.554;7.632;2023-12-20T13:03:34;8.30;99.90
15413;DHT22;7805;49.554;7.632;2023-12-20T13:06:00;8.30;99.90
15413;DHT22;7805;49.554;7.632;2023-12-20T13:08:25;8.20;99.90
15413;DHT22;7805;49.554;7.632;2023-12-20T13:10:51;8.20;99.90
15413;DHT22;7805;49.554;7.632;2023-12-20T13:13:17;8.40;99.90
15413;DHT22;7805;49.554;7.632;2023-12-20T13:15:42;8.80;99.90
15413;DHT22;7805;49.554;7.632;2023-12-20T13:18:13;9.40;99.90
15413;DHT22;7805;49.554;7.632;2023-12-20T13:20:39;10.20;99.90
15413;DHT22;7805;49.554;7.632;2023-12-20T13:23:05;10.30;99.90
15413;DHT22;7805;49.554;7.632;2023-12-20T13:25:31;10.20;99.90
15413;DHT22;7805;49.554;7.632;2023-12-20T13:27:56;9.80;99.90
15413;DHT22;7805;49.554;7.632;2023-12-20T13:30:22;9.90;99.90
15413;DHT22;7805;49.554;7.632;2023-12-20T13:32:47;10.10;99.90
15413;DHT22;7805;49.554;7.632;2023-12-20T13:35:14;10.00;99.90
15413;DHT22;7805;49.554;7.632;2023-12-20T13:37:39;9.70;99.90
15413;DHT22;7805;49.554;7.632;2023-12-20T13:40:06;9.50;99.90
15413;DHT22;7805;49.554;7.632;2023-12-20T13:42:31;9.40;99.90
15413;DHT22;7805;49.554;7.632;2023-12-20T13:44:57;9.40;99.90
15413;DHT22;7805;49.554;7.632;2023-12-20T13:47:22;9.30;99.90
15413;DHT22;7805;49.554;7.632;2023-12-20T13:49:48;9.10;99.90
15413;DHT22;7805;49.554;7.632;2023-12-20T13:52:13;8.80;99.90
15413;DHT22;7805;49.554;7.632;2023-12-20T13:54:39;8.60;99.90
15413;DHT22;7805;49.554;7.632;2023-12-20T13:57:04;8.40;99.90
15413;DHT22;7805;49.554;7.632;2023-12-20T13:59:30;8.30;99.90
15413;DHT22;7805;49.554;7.632;2023-12-20T14:01:56;8.20;99.90
15413;DHT22;7805;49.554;7.632;2023-12-20T14:04:22;8.20;99.90
15413;DHT22;7805;49.554;7.632;2023-12-20T14:06:48;8.10;99.90
15413;DHT22;7805;49.554;7.632;2023-12-20T14:09:13;9.90;99.90
15413;DHT22;7805;49.554;7.632;2023-12-20T14:11:40;7.90;99.90
15413;DHT22;7805;49.554;7.632;2023-12-20T14:14:07;7.90;99.90
15413;DHT22;7805;49.554;7.632;2023-12-20T14:16:33;7.90;99.90
15413;DHT22;7805;49.554;7.632;2023-12-20T14:18:59;7.90;99.90
15413;DHT22;7805;49.554;7.632;2023-12-20T14:21:24;7.90;99.90
15413;DHT22;7805;49.554;7.632;2023-12-20T14:23:50;7.80;99.90
15413;DHT22;7805;49.554;7.632;2023-12-20T14:26:17;7.80;99.90
15413;DHT22;7805;49.554;7.632;2023-12-20T14:28:43;7.80;99.90
15413;DHT22;7805;49.554;7.632;2023-12-20T14:31:09;7.80;99.90
15413;DHT22;7805;49.554;7.632;2023-12-20T14:33:35;7.80;99.90
15413;DHT22;7805;49.554;7.632;2023-12-20T14:36:03;7.80;99.90
15413;DHT22;7805;49.554;7.632;2023-12-20T14:38:30;7.80;99.90
15413;DHT22;7805;49.554;7.632;2023-12-20T14:40:56;7.90;99.90
15413;DHT22;7805;49.554;7.632;2023-12-20T14:43:23;7.80;99.90
15413;DHT22;7805;49.554;7.632;2023-12-20T14:45:48;7.80;99.90
15413;DHT22;7805;49.554;7.632;2023-12-20T14:48:14;7.80;99.90
15413;DHT22;7805;49.554;7.632;2023-12-20T14:50:39;7.80;99.90
15413;DHT22;7805;49.554;7.632;2023-12-20T14:53:08;7.70;99.90
15413;DHT22;7805;49.554;7.632;2023-12-20T14:55:33;7.70;99.90
15413;DHT22;7805;49.554;7.632;2023-12-20T14:58:14;7.70;99.90
15413;DHT22;7805;49.554;7.632;2023-12-20T15:07:28;7.70;99.90
15413;DHT22;7805;49.554;7.632;2023-12-20T15:09:54;7.70;99.90
15413;DHT22;7805;49.554;7.632;2023-12-20T15:12:19;7.70;99.90
15413;DHT22;7805;49.554;7.632;2023-12-20T15:14:45;7.70;99.90
15413;DHT22;7805;49.554;7.632;2023-12-20T15:17:10;7.60;99.90
15413;DHT22;7805;49.554;7.632;2023-12-20T15:19:36;7.60;99.90
15413;DHT22;7805;49.554;7.632;2023-12-20T15:22:01;7.70;99.90
15413;DHT22;7805;49.554;7.632;2023-12-20T15:24:29;7.70;99.90
15413;DHT22;7805;49.554;7.632;2023-12-20T15:27:04;7.60;99.90
15413;DHT22;7805;49.554;7.632;2023-12-20T15:29:29;7.60;99.90
15413;DHT22;7805;49.554;7.632;2023-12-20T15:31:56;7.60;99.90
15413;DHT22;7805;49.554;7.632;2023-12-20T15:34:21;7.70;99.90
15413;DHT22;7805;49.554;7.632;2023-12-20T15:36:47;7.90;99.90
15413;DHT22;7805;49.554;7.632;2023-12-20T15:39:13;7.60;99.90
15413;DHT22;7805;49.554;7.632;2023-12-20T15:41:40;7.60;99.90
15413;DHT22;7805;49.554;7.632;2023-12-20T15:44:05;7.60;99.90
15413;DHT22;7805;49.554;7.632;2023-12-20T15:46:31;7.60;99.90
15413;DHT22;7805;49.554;7.632;2023-12-20T15:48:57;7.60;99.90
15413;DHT22;7805;49.554;7.632;2023-12-20T15:51:23;7.60;99.90
15413;DHT22;7805;49.554;7.632;2023-12-20T15:53:50;7.70;99.90
15413;DHT22;7805;49.554;7.632;2023-12-20T15:56:16;7.60;99.90
15413;DHT22;7805;49.554;7.632;2023-12-20T15:58:43;7.60;99.90
15413;DHT22;7805;49.554;7.632;2023-12-20T16:01:08;7.60;99.90
15413;DHT22;7805;49.554;7.632;2023-12-20T16:03:34;7.60;99.90
15413;DHT22;7805;49.554;7.632;2023-12-20T16:06:00;7.70;99.90
15413;DHT22;7805;49.554;7.632;2023-12-20T16:08:25;7.60;99.90